Air Navigation Services of Czech Republic
Airport: LKNA Updated:  23.09.2017 23:08:08  UTC
 METAR LKNA 23.09. 23:00 ...
METAR LKNA 232300Z 33009KT 9999 OVC043 10/09 Q1019=
 TAF LKNA 23.09. 17:00 ...
TAF LKNA 231700Z 2318/2418 31011KT 7000 SCT030      TEMPO 2318/2418 5000 BR -RA SCT015 BKN020      BECMG 2402/2404 BKN025      TEMPO 2404/2408 2000 BR RA SCT010 BKN012=